Time;durP1;ratioP1;P1;durP2;ratioP2;P2;SDS_P1;SDS_P2;PMS_P1;PMS_P2;Temp;Humidity;BMP_temperature;BMP_pressure;BME280_temperature;BME280_humidity;BME280_pressure;Samples;Min_cycle;Max_cycle;Signal;HPM_P1;HPM_P2
2022/04/12 00:00:40;;;;;;;25.48;16.50;;;7.80;99.90;;;;;;4930177;29;20266;-59
2022/04/12 00:03:07;;;;;;;25.40;16.02;;;7.70;99.90;;;;;;4932520;29;20401;-60
2022/04/12 00:05:33;;;;;;;24.00;16.40;;;7.70;99.90;;;;;;4920876;29;20490;-61
2022/04/12 00:21:04;;;;;;;26.08;16.38;;;7.60;99.90;;;;;;4965542;28;20496;-61
2022/04/12 00:34:05;;;;;;;26.02;17.20;;;7.50;99.90;;;;;;5638880;23;20129;-61
2022/04/12 00:36:30;;;;;;;26.60;17.65;;;7.50;99.90;;;;;;4973543;28;20126;-60
2022/04/12 00:38:56;;;;;;;22.98;16.45;;;7.40;99.90;;;;;;4975948;28;20520;-61
2022/04/12 00:41:22;;;;;;;26.48;16.75;;;7.30;99.90;;;;;;4975785;28;20043;-61
2022/04/12 00:43:47;;;;;;;24.42;16.38;;;7.20;99.90;;;;;;4964278;28;20051;-60
2022/04/12 00:46:13;;;;;;;24.17;15.93;;;7.20;99.90;;;;;;4956377;28;20046;-60
2022/04/12 01:01:35;;;;;;;26.17;16.50;;;6.90;99.90;;;;;;5856433;23;20047;-60
2022/04/12 01:04:01;;;;;;;25.40;16.25;;;6.90;99.90;;;;;;4948253;28;20126;-60
2022/04/12 01:06:26;;;;;;;25.85;16.42;;;6.90;99.90;;;;;;4949100;29;20036;-60
2022/04/12 01:08:52;;;;;;;27.83;16.38;;;6.90;99.90;;;;;;4955962;28;20062;-60
2022/04/12 01:11:17;;;;;;;25.10;16.30;;;6.80;99.90;;;;;;4956207;28;20039;-61
2022/04/12 01:13:43;;;;;;;24.85;16.55;;;6.80;99.90;;;;;;4944458;28;20039;-60
2022/04/12 01:24:14;;;;;;;;;;;6.70;99.90;;;;;;5865014;23;19981;-60
2022/04/12 01:26:40;;;;;;;26.63;15.13;;;6.60;99.90;;;;;;4937549;28;19918;-60
2022/04/12 01:29:06;;;;;;;26.25;15.10;;;6.70;99.90;;;;;;4948664;29;20058;-60
2022/04/12 01:31:31;;;;;;;26.27;15.68;;;6.70;99.90;;;;;;4955316;28;20118;-60
2022/04/12 01:33:57;;;;;;;24.88;16.42;;;6.60;99.90;;;;;;4943964;28;20039;-60
2022/04/12 01:59:42;;;;;;;23.98;14.90;;;6.30;99.90;;;;;;5095814;23;20486;-60
2022/04/12 02:02:08;;;;;;;23.80;15.45;;;6.30;99.90;;;;;;4971696;28;20055;-61
2022/04/12 02:04:34;;;;;;;28.67;15.88;;;6.30;99.90;;;;;;4965818;28;20382;-60
2022/04/12 02:06:59;;;;;;;24.65;15.60;;;6.30;99.90;;;;;;4947702;28;20557;-59
2022/04/12 02:09:25;;;;;;;22.80;15.15;;;6.30;99.90;;;;;;4950055;28;20047;-61
2022/04/12 02:11:53;;;;;;;22.25;14.63;;;6.30;99.90;;;;;;4953826;29;20043;-60
2022/04/12 02:14:18;;;;;;;23.70;14.98;;;6.40;99.90;;;;;;4974920;23;20050;-60
2022/04/12 02:16:44;;;;;;;22.95;14.20;;;6.30;99.90;;;;;;4968217;28;20050;-60
2022/04/12 02:19:09;;;;;;;24.48;14.80;;;6.30;99.90;;;;;;4973796;28;20042;-60
2022/04/12 02:21:35;;;;;;;24.80;15.32;;;6.30;99.90;;;;;;4974089;28;20042;-59
2022/04/12 02:24:01;;;;;;;24.90;14.70;;;6.20;99.90;;;;;;4966573;28;20035;-59
2022/04/12 02:26:27;;;;;;;26.30;15.27;;;6.20;99.90;;;;;;4960437;28;20046;-59
2022/04/12 02:28:53;;;;;;;22.90;14.85;;;6.20;99.90;;;;;;4954558;28;20043;-60
2022/04/12 02:31:18;;;;;;;21.75;13.98;;;6.20;99.90;;;;;;4954416;29;20046;-60
2022/04/12 02:33:44;;;;;;;24.80;14.60;;;6.10;99.90;;;;;;4953131;28;20047;-59
2022/04/12 02:36:09;;;;;;;24.70;15.02;;;6.10;99.90;;;;;;4960782;28;20039;-59
2022/04/12 02:38:35;;;;;;;23.70;15.10;;;6.00;99.90;;;;;;4954387;28;20050;-60
2022/04/12 02:41:00;;;;;;;22.42;14.13;;;6.00;99.90;;;;;;4952344;28;20039;-60
2022/04/12 02:43:26;;;;;;;23.42;14.65;;;6.00;99.90;;;;;;4953068;28;20394;-60
2022/04/12 02:45:52;;;;;;;24.42;14.65;;;5.90;99.90;;;;;;4954061;28;20040;-59
2022/04/12 02:48:17;;;;;;;24.08;14.65;;;5.90;99.90;;;;;;4954203;29;20090;-60
2022/04/12 02:50:43;;;;;;;24.25;14.23;;;5.90;99.90;;;;;;4953867;28;20042;-60
2022/04/12 02:53:09;;;;;;;21.98;14.02;;;5.90;99.90;;;;;;4954690;28;20517;-60
2022/04/12 02:55:34;;;;;;;22.35;14.15;;;5.80;99.90;;;;;;4958146;28;20030;-59
2022/04/12 02:58:00;;;;;;;21.88;14.07;;;5.80;99.90;;;;;;4958256;28;20039;-60
2022/04/12 03:00:25;;;;;;;22.55;14.20;;;5.90;99.90;;;;;;4956988;28;20081;-60
2022/04/12 03:02:51;;;;;;;23.17;13.85;;;5.80;99.90;;;;;;4954907;28;20039;-59
2022/04/12 03:05:17;;;;;;;23.77;15.05;;;5.90;99.90;;;;;;4956050;28;20089;-60
2022/04/12 03:07:42;;;;;;;22.55;14.60;;;5.90;99.90;;;;;;4955986;28;20031;-60
2022/04/12 03:10:08;;;;;;;25.20;14.75;;;5.90;99.90;;;;;;4954774;28;20498;-60
2022/04/12 03:12:34;;;;;;;27.05;14.00;;;6.00;99.90;;;;;;4973350;28;20043;-60
2022/04/12 03:15:01;;;;;;;23.50;14.63;;;6.00;99.90;;;;;;4947552;28;20039;-60
2022/04/12 03:17:27;;;;;;;21.02;13.68;;;6.10;99.90;;;;;;4953648;28;20125;-60
2022/04/12 03:19:53;;;;;;;22.40;14.25;;;6.10;99.90;;;;;;4953535;28;20126;-59
2022/04/12 03:22:19;;;;;;;21.45;13.55;;;6.10;99.90;;;;;;4952475;28;20043;-59
2022/04/12 03:24:45;;;;;;;22.27;15.13;;;6.10;99.90;;;;;;4952977;28;20047;-60
2022/04/12 03:27:11;;;;;;;20.42;13.77;;;6.10;99.90;;;;;;4953566;28;20078;-60
2022/04/12 03:29:36;;;;;;;22.70;14.05;;;6.10;99.90;;;;;;4952162;28;20043;-59
2022/04/12 03:32:02;;;;;;;21.90;14.15;;;6.10;99.90;;;;;;4959158;28;20039;-60
2022/04/12 03:34:27;;;;;;;24.00;14.05;;;6.10;99.90;;;;;;4952914;28;20062;-60
2022/04/12 03:36:53;;;;;;;23.98;15.32;;;6.10;99.90;;;;;;4953635;29;20071;-60
2022/04/12 03:39:19;;;;;;;25.63;13.75;;;6.10;99.90;;;;;;4958161;28;20067;-60
2022/04/12 03:41:48;;;;;;;23.45;13.98;;;6.10;99.90;;;;;;4952862;28;20465;-60
2022/04/12 03:44:15;;;;;;;21.42;13.80;;;6.20;99.90;;;;;;4958968;28;20043;-59
2022/04/12 03:46:41;;;;;;;22.52;14.15;;;6.10;99.90;;;;;;4946085;28;20039;-59
2022/04/12 03:49:06;;;;;;;24.42;14.15;;;6.10;99.90;;;;;;4956980;28;20704;-59
2022/04/12 03:51:32;;;;;;;23.50;14.52;;;6.10;99.90;;;;;;4953618;28;20039;-60
2022/04/12 03:53:58;;;;;;;22.38;14.13;;;6.20;99.90;;;;;;4950780;28;20431;-58
2022/04/12 03:56:24;;;;;;;21.15;13.73;;;6.10;99.90;;;;;;4955554;28;20046;-59
2022/04/12 03:58:49;;;;;;;21.50;13.65;;;6.10;99.90;;;;;;4956964;28;20421;-60
2022/04/12 04:01:15;;;;;;;24.65;15.02;;;6.10;99.90;;;;;;4954961;28;20074;-60
2022/04/12 04:03:40;;;;;;;20.33;13.95;;;6.10;99.90;;;;;;4953934;28;20401;-60
2022/04/12 04:06:06;;;;;;;21.70;13.73;;;6.10;99.90;;;;;;4956689;28;20508;-60
2022/04/12 04:08:32;;;;;;;22.98;14.40;;;6.10;99.90;;;;;;4957125;28;20070;-60
2022/04/12 04:10:58;;;;;;;23.45;14.05;;;6.00;99.90;;;;;;4955202;28;20065;-60
2022/04/12 04:13:26;;;;;;;20.63;13.77;;;6.00;99.90;;;;;;4957396;28;20035;-60
2022/04/12 04:15:52;;;;;;;23.75;15.07;;;6.00;99.90;;;;;;4957236;28;20069;-60
2022/04/12 04:18:18;;;;;;;22.63;14.65;;;5.90;99.90;;;;;;4957034;29;20102;-60
2022/04/12 04:20:43;;;;;;;22.65;14.20;;;5.90;99.90;;;;;;4953850;28;20405;-60
2022/04/12 04:23:09;;;;;;;23.90;14.40;;;5.90;99.90;;;;;;4957000;28;20043;-60
2022/04/12 04:25:35;;;;;;;26.60;14.30;;;5.90;99.90;;;;;;4956891;28;20031;-60
2022/04/12 04:28:02;;;;;;;20.73;13.57;;;5.90;99.90;;;;;;4956975;29;20071;-60
2022/04/12 04:30:30;;;;;;;24.08;13.95;;;5.90;99.90;;;;;;4957338;28;20035;-60
2022/04/12 04:32:55;;;;;;;25.90;14.23;;;5.90;99.90;;;;;;4938673;28;20051;-60
2022/04/12 04:35:21;;;;;;;21.73;14.15;;;5.90;99.90;;;;;;4956700;28;20047;-60
2022/04/12 04:37:48;;;;;;;24.33;14.38;;;5.90;99.90;;;;;;4957649;28;20035;-59
2022/04/12 04:40:15;;;;;;;24.02;14.38;;;5.90;99.90;;;;;;4956148;28;20049;-60
2022/04/12 04:42:44;;;;;;;23.27;13.90;;;5.90;99.90;;;;;;4954661;28;20070;-60
2022/04/12 04:45:13;;;;;;;24.05;14.38;;;5.90;99.90;;;;;;4955590;28;20044;-59
2022/04/12 04:47:56;;;;;;;24.60;14.02;;;5.90;99.90;;;;;;4956307;28;20110;-60
2022/04/12 04:50:23;;;;;;;21.17;13.20;;;5.80;99.90;;;;;;4937498;28;20106;-60
2022/04/12 04:52:50;;;;;;;21.67;13.13;;;5.80;99.90;;;;;;4953030;28;20039;-60
2022/04/12 04:55:17;;;;;;;24.17;14.32;;;5.80;99.90;;;;;;4955577;28;20410;-60
2022/04/12 04:57:44;;;;;;;22.88;13.77;;;5.80;99.90;;;;;;4955501;28;20043;-60
2022/04/12 05:00:15;;;;;;;19.92;13.18;;;5.80;99.90;;;;;;4956455;29;20046;-60
2022/04/12 05:02:51;;;;;;;20.92;13.15;;;5.80;99.90;;;;;;4936868;28;20047;-60
2022/04/12 05:05:17;;;;;;;19.55;13.10;;;5.80;99.90;;;;;;4955647;28;20039;-60
2022/04/12 05:07:45;;;;;;;24.00;13.43;;;5.80;99.90;;;;;;4938303;29;20130;-62
2022/04/12 05:10:20;;;;;;;22.85;13.65;;;5.80;99.90;;;;;;4953253;28;20094;-62
2022/04/12 05:12:46;;;;;;;20.45;13.35;;;5.80;99.90;;;;;;4955252;28;20451;-57
2022/04/12 05:15:12;;;;;;;25.48;13.65;;;5.90;99.90;;;;;;4966153;28;20046;-59
2022/04/12 05:17:38;;;;;;;21.70;13.90;;;5.80;99.90;;;;;;4972699;28;20043;-57
2022/04/12 05:20:09;;;;;;;25.83;13.60;;;5.90;99.90;;;;;;4954132;28;20058;-60
2022/04/12 05:22:35;;;;;;;21.52;12.70;;;5.90;99.90;;;;;;4937846;29;20572;-59
2022/04/12 05:25:01;;;;;;;21.75;12.98;;;5.90;99.90;;;;;;4952012;29;20049;-59
2022/04/12 05:27:33;;;;;;;22.73;13.20;;;5.90;99.90;;;;;;4953573;28;20043;-60
2022/04/12 05:30:00;;;;;;;21.98;13.95;;;6.00;99.90;;;;;;4958508;28;20099;-59
2022/04/12 05:32:25;;;;;;;24.30;14.05;;;6.00;99.90;;;;;;4955450;28;20039;-59
2022/04/12 05:34:52;;;;;;;19.42;13.27;;;6.10;99.90;;;;;;4955691;29;20375;-60
2022/04/12 05:37:18;;;;;;;19.23;13.25;;;6.10;99.90;;;;;;4956643;28;20055;-60
2022/04/12 05:39:43;;;;;;;24.00;14.05;;;6.20;99.90;;;;;;4955404;28;20409;-60
2022/04/12 05:42:09;;;;;;;21.83;13.43;;;6.20;99.90;;;;;;4955817;29;20035;-60
2022/04/12 05:44:35;;;;;;;22.48;14.35;;;6.30;99.90;;;;;;4953915;28;20102;-59
2022/04/12 05:47:01;;;;;;;23.42;14.10;;;6.40;99.90;;;;;;4953259;28;20442;-60
2022/04/12 05:49:28;;;;;;;22.35;13.73;;;6.50;99.90;;;;;;4951438;28;20123;-60
2022/04/12 05:51:54;;;;;;;23.83;14.43;;;6.60;99.90;;;;;;4955818;28;20063;-60
2022/04/12 05:54:20;;;;;;;20.20;13.05;;;6.70;99.90;;;;;;4950891;28;20094;-60
2022/04/12 05:56:45;;;;;;;21.90;13.10;;;6.80;99.90;;;;;;4951613;28;20051;-60
2022/04/12 05:59:11;;;;;;;25.20;13.88;;;6.90;99.90;;;;;;4951792;29;20050;-59
2022/04/12 06:01:38;;;;;;;25.27;14.40;;;6.90;99.90;;;;;;4951352;28;20043;-60
2022/04/12 06:04:05;;;;;;;29.98;13.88;;;7.00;99.90;;;;;;4953317;28;20047;-61
2022/04/12 06:06:32;;;;;;;24.05;13.68;;;7.10;99.90;;;;;;4954834;29;20043;-61
2022/04/12 06:08:58;;;;;;;22.60;13.70;;;7.20;99.90;;;;;;4955260;29;20082;-61
2022/04/12 06:11:24;;;;;;;22.38;13.32;;;7.30;99.90;;;;;;4960152;28;20625;-61
2022/04/12 06:13:49;;;;;;;19.85;13.38;;;7.40;99.90;;;;;;4961948;28;20056;-61
2022/04/12 06:16:15;;;;;;;20.45;12.60;;;7.50;99.90;;;;;;4953272;28;20031;-60
2022/04/12 06:18:40;;;;;;;21.50;14.10;;;7.50;99.90;;;;;;4952649;28;20402;-61
2022/04/12 06:21:06;;;;;;;24.65;13.10;;;7.60;99.90;;;;;;4957402;28;20493;-61
2022/04/12 06:23:32;;;;;;;20.33;13.32;;;7.70;99.90;;;;;;4954527;29;20414;-60
2022/04/12 06:25:58;;;;;;;19.85;12.45;;;7.70;99.90;;;;;;4949870;28;20686;-61
2022/04/12 06:28:24;;;;;;;20.60;12.23;;;7.80;99.90;;;;;;4950040;28;20039;-61
2022/04/12 06:30:49;;;;;;;20.30;13.13;;;7.90;99.90;;;;;;4955277;28;20042;-60
2022/04/12 06:33:15;;;;;;;22.10;13.80;;;8.00;99.90;;;;;;4951866;28;20047;-61
2022/04/12 06:35:41;;;;;;;19.40;12.50;;;8.10;99.90;;;;;;4953352;28;20066;-61
2022/04/12 06:38:08;;;;;;;19.55;12.93;;;8.20;99.90;;;;;;4954283;28;20050;-61
2022/04/12 06:40:35;;;;;;;23.63;13.43;;;8.30;99.90;;;;;;4954546;29;20533;-61
2022/04/12 06:43:00;;;;;;;21.63;13.05;;;8.40;99.90;;;;;;4957067;28;20043;-61
2022/04/12 06:45:26;;;;;;;19.05;12.52;;;8.50;99.90;;;;;;4960762;28;20109;-61
2022/04/12 06:47:55;;;;;;;20.60;12.77;;;8.50;99.90;;;;;;4954939;28;20050;-61
2022/04/12 06:50:20;;;;;;;18.77;11.88;;;8.50;99.90;;;;;;4955024;28;20129;-61
2022/04/12 06:52:46;;;;;;;20.23;12.90;;;8.60;99.90;;;;;;4954116;28;20090;-61
2022/04/12 06:55:11;;;;;;;20.20;13.30;;;8.60;99.90;;;;;;4966959;28;20034;-61
2022/04/12 06:57:37;;;;;;;18.88;13.38;;;8.60;99.90;;;;;;4973534;28;20496;-60
2022/04/12 07:00:05;;;;;;;18.48;12.38;;;8.60;99.90;;;;;;4956393;28;20087;-57
2022/04/12 07:02:31;;;;;;;19.63;12.88;;;8.60;99.90;;;;;;4954459;28;20041;-61
2022/04/12 07:04:56;;;;;;;20.33;13.23;;;8.60;99.90;;;;;;4953207;28;20047;-57
2022/04/12 07:07:22;;;;;;;20.17;13.32;;;8.60;99.90;;;;;;4951276;28;20035;-60
2022/04/12 07:09:47;;;;;;;24.35;13.57;;;8.70;99.90;;;;;;4953359;28;20051;-63
2022/04/12 07:12:13;;;;;;;23.08;13.27;;;8.70;99.90;;;;;;4949366;28;20042;-60
2022/04/12 07:14:38;;;;;;;19.20;12.43;;;8.80;99.90;;;;;;4962136;28;20458;-61
2022/04/12 07:17:05;;;;;;;19.80;12.38;;;8.90;99.90;;;;;;4960350;28;20134;-61
2022/04/12 07:19:31;;;;;;;19.35;12.30;;;9.00;99.90;;;;;;4951140;28;20067;-66
2022/04/12 07:21:56;;;;;;;21.15;12.52;;;9.10;99.90;;;;;;4963656;28;20125;-60
2022/04/12 07:24:22;;;;;;;19.75;11.73;;;9.10;99.90;;;;;;4962307;28;20078;-62
2022/04/12 07:26:47;;;;;;;18.20;11.93;;;9.20;99.90;;;;;;4963419;28;20049;-60
2022/04/12 07:29:13;;;;;;;18.50;11.40;;;9.20;99.90;;;;;;4953577;28;20533;-60
2022/04/12 07:31:39;;;;;;;18.38;11.55;;;9.20;99.90;;;;;;4969502;28;20102;-62
2022/04/12 07:34:04;;;;;;;17.83;11.60;;;9.20;99.90;;;;;;4958502;28;20057;-62
2022/04/12 07:36:30;;;;;;;17.20;11.77;;;9.20;99.90;;;;;;4956090;28;20066;-62
2022/04/12 07:38:55;;;;;;;18.50;11.63;;;9.20;99.90;;;;;;4963713;28;20461;-63
2022/04/12 07:41:21;;;;;;;18.17;11.50;;;9.40;99.90;;;;;;4953773;28;20390;-62
2022/04/12 07:43:47;;;;;;;18.85;11.77;;;9.50;99.90;;;;;;4952275;28;20098;-62
2022/04/12 07:46:13;;;;;;;17.40;11.65;;;9.60;99.90;;;;;;4953477;29;20035;-62
2022/04/12 07:48:43;;;;;;;20.98;12.23;;;9.60;99.90;;;;;;4960180;28;20469;-62
2022/04/12 07:51:09;;;;;;;18.73;11.93;;;9.80;99.90;;;;;;4961815;28;20036;-62
2022/04/12 07:53:36;;;;;;;17.40;11.70;;;9.80;99.90;;;;;;4950276;28;20059;-62
2022/04/12 07:56:02;;;;;;;19.33;12.13;;;9.90;99.90;;;;;;4935791;29;20114;-62
2022/04/12 07:58:27;;;;;;;18.05;11.50;;;10.00;99.90;;;;;;4944595;28;20046;-63
2022/04/12 08:00:53;;;;;;;19.52;11.57;;;10.10;99.90;;;;;;4953179;28;20095;-63
2022/04/12 08:03:21;;;;;;;20.08;12.63;;;10.20;99.90;;;;;;4952879;29;20513;-67
2022/04/12 08:05:50;;;;;;;18.38;11.18;;;10.40;99.90;;;;;;4950782;28;20448;-62
2022/04/12 08:08:16;;;;;;;16.90;11.60;;;10.50;99.90;;;;;;4935323;29;20046;-63
2022/04/12 08:10:42;;;;;;;17.65;11.07;;;10.60;99.90;;;;;;4952784;28;20397;-63
2022/04/12 08:13:08;;;;;;;17.83;12.05;;;10.70;99.90;;;;;;4950154;28;20043;-63
2022/04/12 08:15:34;;;;;;;17.10;11.73;;;10.90;99.90;;;;;;5548756;23;20074;-61
2022/04/12 08:17:59;;;;;;;17.17;11.60;;;11.00;99.90;;;;;;4963278;28;20556;-61
2022/04/12 08:23:08;;;;;;;18.52;11.55;;;11.30;99.90;;;;;;5653565;23;20050;-61
2022/04/12 08:25:34;;;;;;;16.02;11.20;;;11.40;99.90;;;;;;4968084;28;20400;-61
2022/04/12 08:27:59;;;;;;;14.55;10.63;;;11.50;99.90;;;;;;4942063;29;20040;-61
2022/04/12 08:30:25;;;;;;;16.02;11.10;;;11.70;99.90;;;;;;4950089;28;20035;-61
2022/04/12 08:32:51;;;;;;;18.58;11.65;;;11.80;99.90;;;;;;4951028;28;20585;-61
2022/04/12 08:35:17;;;;;;;16.55;10.88;;;11.80;99.90;;;;;;4951832;28;20039;-61
2022/04/12 08:37:51;;;;;;;16.83;11.25;;;11.90;99.90;;;;;;4938259;28;20039;-62
2022/04/12 08:40:20;;;;;;;16.65;11.40;;;12.00;99.90;;;;;;4944007;28;20536;-60
2022/04/12 08:42:46;;;;;;;16.60;11.45;;;12.10;99.90;;;;;;4936196;28;20074;-60
2022/04/12 08:45:12;;;;;;;16.60;10.65;;;12.20;99.90;;;;;;4955481;29;20061;-60
2022/04/12 08:47:38;;;;;;;15.43;10.98;;;12.30;99.90;;;;;;4958608;28;20662;-60
2022/04/12 08:50:06;;;;;;;14.90;10.93;;;12.30;99.90;;;;;;4954186;28;20090;-61
2022/04/12 08:52:32;;;;;;;17.88;10.75;;;12.40;99.90;;;;;;4955030;28;20039;-61
2022/04/12 08:54:59;;;;;;;17.08;11.23;;;12.60;99.90;;;;;;4955787;29;20118;-61
2022/04/12 08:57:24;;;;;;;18.58;11.48;;;12.70;99.90;;;;;;4935075;28;20051;-61
2022/04/12 08:59:50;;;;;;;17.58;11.13;;;12.80;99.90;;;;;;4962858;28;20058;-61
2022/04/12 09:08:33;;;;;;;15.85;11.30;;;13.10;99.90;;;;;;4953851;29;20046;-61
2022/04/12 09:11:01;;;;;;;16.75;11.57;;;13.20;99.90;;;;;;4956194;29;20418;-61
2022/04/12 09:13:27;;;;;;;18.55;10.98;;;13.30;99.90;;;;;;4944894;29;20047;-61
2022/04/12 09:15:52;;;;;;;18.67;10.45;;;13.40;99.90;;;;;;4939927;29;20399;-61
2022/04/12 09:18:50;;;;;;;14.65;10.63;;;13.50;99.90;;;;;;4937021;29;20048;-61
2022/04/12 09:21:21;;;;;;;15.98;11.07;;;13.70;99.90;;;;;;4920101;23;20046;-62
2022/04/12 09:23:52;;;;;;;16.25;10.90;;;13.90;99.90;;;;;;4954316;28;20082;-63
2022/04/12 09:26:25;;;;;;;16.15;11.00;;;14.00;99.90;;;;;;4955671;28;20043;-62
2022/04/12 09:28:53;;;;;;;17.00;11.05;;;14.10;99.90;;;;;;4943968;28;20055;-62
2022/04/12 09:31:19;;;;;;;16.05;11.40;;;14.20;99.90;;;;;;4952949;28;20058;-62
2022/04/12 09:33:47;;;;;;;14.75;10.57;;;14.30;99.90;;;;;;4955259;28;20482;-63
2022/04/12 09:36:13;;;;;;;17.45;11.05;;;14.30;99.90;;;;;;4950636;29;20066;-62
2022/04/12 09:38:41;;;;;;;15.50;10.88;;;14.50;99.90;;;;;;4946573;28;20078;-62
2022/04/12 09:41:26;;;;;;;14.35;9.50;;;14.60;99.90;;;;;;4943201;28;20187;-62
2022/04/12 09:43:53;;;;;;;15.45;9.68;;;14.80;99.90;;;;;;4943762;28;20437;-62
2022/04/12 09:46:19;;;;;;;14.82;10.52;;;14.90;99.90;;;;;;4955643;28;20086;-62
2022/04/12 09:48:47;;;;;;;14.93;10.20;;;15.00;99.90;;;;;;4954576;29;20042;-62
2022/04/12 09:51:13;;;;;;;14.35;10.30;;;15.10;99.90;;;;;;4951506;29;20494;-63
2022/04/12 09:53:40;;;;;;;18.23;10.38;;;15.10;99.90;;;;;;4945705;28;20047;-63
2022/04/12 09:56:36;;;;;;;15.18;10.40;;;15.10;99.90;;;;;;4942250;29;20058;-62
2022/04/12 09:59:07;;;;;;;16.58;9.98;;;15.30;99.90;;;;;;4931194;28;20094;-62
2022/04/12 10:01:39;;;;;;;16.30;10.18;;;15.40;99.90;;;;;;4938610;29;20044;-62
2022/04/12 10:04:07;;;;;;;14.90;10.85;;;15.50;99.90;;;;;;4940272;28;20055;-62
2022/04/12 10:06:41;;;;;;;14.32;10.23;;;15.50;99.90;;;;;;4958612;28;20147;-63
2022/04/12 10:09:13;;;;;;;17.63;10.95;;;15.50;99.90;;;;;;4948386;28;20043;-62
2022/04/12 10:11:39;;;;;;;17.05;11.18;;;15.60;99.90;;;;;;4945883;28;20078;-63
2022/04/12 10:14:05;;;;;;;18.50;10.82;;;15.70;99.90;;;;;;4954438;28;20043;-63
2022/04/12 10:16:32;;;;;;;17.05;10.68;;;15.90;99.90;;;;;;4950325;28;20057;-63
2022/04/12 10:19:00;;;;;;;19.58;11.52;;;16.00;99.90;;;;;;4948581;28;20490;-62
2022/04/12 10:21:26;;;;;;;15.25;10.73;;;16.00;99.90;;;;;;4954577;28;20390;-62
2022/04/12 10:23:55;;;;;;;17.05;10.10;;;16.10;99.90;;;;;;4949565;29;20039;-63
2022/04/12 10:26:24;;;;;;;15.95;9.93;;;16.10;99.90;;;;;;4941754;28;20039;-62
2022/04/12 10:28:59;;;;;;;14.50;9.93;;;16.10;99.90;;;;;;4949017;28;20078;-62
2022/04/12 10:31:30;;;;;;;16.75;10.18;;;16.10;99.10;;;;;;4954287;28;20490;-62
2022/04/12 10:34:12;;;;;;;17.25;10.45;;;16.10;99.90;;;;;;4954129;29;20039;-62
2022/04/12 10:37:04;;;;;;;16.85;10.43;;;16.20;99.90;;;;;;4940836;29;20110;-61
2022/04/12 10:39:36;;;;;;;15.00;10.30;;;16.30;99.90;;;;;;4950281;28;20773;-63
2022/04/12 10:42:08;;;;;;;13.48;10.15;;;16.40;99.90;;;;;;4935506;29;20043;-62
2022/04/12 10:44:40;;;;;;;17.27;11.02;;;16.50;99.90;;;;;;4932680;28;20406;-62
2022/04/12 10:47:25;;;;;;;16.90;10.93;;;16.50;98.60;;;;;;4946803;28;20039;-62
2022/04/12 10:49:57;;;;;;;16.00;10.20;;;16.60;99.90;;;;;;4954014;28;20513;-62
2022/04/12 10:52:55;;;;;;;16.38;10.52;;;16.70;99.90;;;;;;4943067;28;20050;-62
2022/04/12 10:55:26;;;;;;;14.32;10.23;;;16.80;98.10;;;;;;4906252;28;20445;-62
2022/04/12 10:57:52;;;;;;;;;;;16.90;99.90;;;;;;4954655;29;20046;-62
2022/04/12 11:00:22;;;;;;;17.73;10.25;;;17.00;97.80;;;;;;4941454;29;19923;-62
2022/04/12 11:02:58;;;;;;;16.80;10.90;;;17.00;99.90;;;;;;4952094;28;20533;-62
2022/04/12 11:05:39;;;;;;;15.65;10.68;;;17.10;97.70;;;;;;4953727;28;20129;-62
2022/04/12 11:08:34;;;;;;;15.77;10.70;;;17.20;97.70;;;;;;4954142;29;20051;-62
2022/04/12 11:10:59;;;;;;;14.05;10.18;;;17.30;98.00;;;;;;4922810;29;20051;-63
2022/04/12 11:13:28;;;;;;;14.43;10.68;;;17.40;99.90;;;;;;4939411;29;20058;-62
2022/04/12 11:16:01;;;;;;;14.07;10.80;;;17.40;97.60;;;;;;4953947;28;20098;-62
2022/04/12 11:18:52;;;;;;;16.30;11.40;;;17.40;99.00;;;;;;4935095;28;20408;-62
2022/04/12 11:21:20;;;;;;;15.02;10.27;;;17.60;97.10;;;;;;4962805;28;20051;-62
2022/04/12 11:23:46;;;;;;;14.40;10.45;;;17.70;99.20;;;;;;4962618;28;20054;-62
2022/04/12 11:26:46;;;;;;;15.93;11.13;;;17.80;98.70;;;;;;4956628;28;20043;-62
2022/04/12 11:29:15;;;;;;;15.70;10.68;;;17.90;94.40;;;;;;4961035;28;20496;-62
2022/04/12 11:31:47;;;;;;;15.15;11.27;;;17.90;96.60;;;;;;4955976;28;20070;-62
2022/04/12 11:34:14;;;;;;;17.67;11.75;;;17.90;98.10;;;;;;4943893;28;20081;-62
2022/04/12 11:36:46;;;;;;;20.00;11.90;;;18.00;99.50;;;;;;4952703;28;20501;-62
2022/04/12 11:39:16;;;;;;;19.75;10.90;;;18.10;99.20;;;;;;4952384;28;20047;-62
2022/04/12 11:41:42;;;;;;;15.77;11.30;;;18.20;98.50;;;;;;4947404;28;20139;-62
2022/04/12 11:44:07;;;;;;;19.88;11.60;;;18.30;99.00;;;;;;4943747;28;20150;-62
2022/04/12 11:46:34;;;;;;;17.48;10.63;;;18.50;98.20;;;;;;4953517;28;20528;-62
2022/04/12 11:49:07;;;;;;;17.20;10.73;;;18.60;98.20;;;;;;4953564;29;20047;-62
2022/04/12 11:51:38;;;;;;;18.25;11.90;;;18.60;95.00;;;;;;4949566;28;20053;-62
2022/04/12 11:54:24;;;;;;;16.47;11.83;;;18.80;97.30;;;;;;4945539;28;20043;-62
2022/04/12 11:57:00;;;;;;;16.67;11.60;;;19.00;97.70;;;;;;4952384;29;20047;-62
2022/04/12 11:59:27;;;;;;;18.30;11.35;;;19.20;98.80;;;;;;4946124;28;20035;-62
2022/04/12 12:01:59;;;;;;;13.82;9.40;;;19.30;99.00;;;;;;4943017;28;20058;-62
2022/04/12 12:04:34;;;;;;;12.43;8.15;;;19.60;99.30;;;;;;4935880;29;20051;-62
2022/04/12 12:07:06;;;;;;;14.73;8.73;;;19.60;98.90;;;;;;4938592;28;20039;-62
2022/04/12 12:09:34;;;;;;;15.63;8.60;;;19.80;91.50;;;;;;4931769;29;20535;-62
2022/04/12 12:12:12;;;;;;;13.50;9.07;;;19.80;97.40;;;;;;4946352;28;20240;-62
2022/04/12 12:14:37;;;;;;;18.60;8.77;;;19.80;90.60;;;;;;4952388;28;20039;-64
2022/04/12 12:17:09;;;;;;;13.77;9.02;;;19.90;96.10;;;;;;4954014;28;20402;-61
2022/04/12 12:19:39;;;;;;;13.65;7.88;;;20.10;93.90;;;;;;4957513;29;20046;-61
2022/04/12 12:22:10;;;;;;;14.95;8.80;;;20.20;95.60;;;;;;4940020;29;20047;-64
2022/04/12 12:24:53;;;;;;;12.98;8.80;;;20.20;93.80;;;;;;4957217;29;20049;-61
2022/04/12 12:27:26;;;;;;;15.95;9.00;;;20.20;92.60;;;;;;4957414;29;20039;-61
2022/04/12 12:29:52;;;;;;;17.83;9.07;;;20.20;92.10;;;;;;4957186;29;20047;-61
2022/04/12 12:32:17;;;;;;;14.18;9.15;;;20.30;96.30;;;;;;4945430;29;20031;-63
2022/04/12 12:34:44;;;;;;;14.48;9.48;;;20.30;94.30;;;;;;4956147;28;20125;-65
2022/04/12 12:37:11;;;;;;;15.88;9.05;;;20.50;95.30;;;;;;4956362;28;20043;-64
2022/04/12 12:39:40;;;;;;;14.70;8.95;;;20.70;94.80;;;;;;4935827;28;20050;-63
2022/04/12 12:42:07;;;;;;;14.95;9.38;;;20.70;92.20;;;;;;4947672;28;20054;-64
2022/04/12 12:44:37;;;;;;;14.32;9.07;;;20.80;93.90;;;;;;4954987;28;20101;-64
2022/04/12 12:47:04;;;;;;;14.00;9.35;;;20.80;90.60;;;;;;4955799;28;20032;-62
2022/04/12 12:49:40;;;;;;;14.68;9.50;;;20.90;92.10;;;;;;4946727;28;20047;-65
2022/04/12 12:52:11;;;;;;;15.55;9.32;;;20.80;90.80;;;;;;4948337;29;20039;-65
2022/04/12 12:54:37;;;;;;;13.97;9.33;;;20.60;92.60;;;;;;4955254;28;20413;-64
2022/04/12 12:57:05;;;;;;;12.95;9.10;;;20.60;94.30;;;;;;4950342;28;20197;-63
2022/04/12 12:59:33;;;;;;;13.23;8.90;;;20.40;93.90;;;;;;4945020;29;20509;-63
2022/04/12 13:02:07;;;;;;;13.02;8.55;;;20.20;93.30;;;;;;4955911;28;20383;-65
2022/04/12 13:04:36;;;;;;;14.23;9.63;;;20.20;93.60;;;;;;4955976;28;20421;-64
2022/04/12 13:07:03;;;;;;;14.43;9.40;;;20.30;95.50;;;;;;4937922;29;20039;-64
2022/04/12 13:09:29;;;;;;;13.60;9.32;;;20.30;94.80;;;;;;4951362;28;20055;-64
2022/04/12 13:11:55;;;;;;;13.20;8.38;;;20.30;92.70;;;;;;4955881;28;20449;-64
2022/04/12 13:14:21;;;;;;;16.15;9.30;;;20.50;93.00;;;;;;4952489;28;20041;-64
2022/04/12 13:16:46;;;;;;;14.50;9.23;;;20.50;93.70;;;;;;4952229;29;20043;-64
2022/04/12 13:19:12;;;;;;;12.85;8.13;;;20.50;93.30;;;;;;4954555;29;20098;-64
2022/04/12 13:21:38;;;;;;;14.68;9.30;;;20.50;93.60;;;;;;4943268;29;20043;-64
2022/04/12 13:24:03;;;;;;;12.07;8.43;;;20.40;93.40;;;;;;4955272;29;20047;-65
2022/04/12 13:26:29;;;;;;;15.38;8.10;;;20.30;92.00;;;;;;4950021;28;20107;-64
2022/04/12 13:28:54;;;;;;;14.18;8.40;;;20.20;92.50;;;;;;4953261;28;20410;-64
2022/04/12 13:31:20;;;;;;;12.57;7.95;;;20.30;92.70;;;;;;4944308;28;20036;-64
2022/04/12 13:33:45;;;;;;;14.85;8.50;;;20.20;93.30;;;;;;4949761;28;20043;-64
2022/04/12 13:36:11;;;;;;;14.68;9.10;;;20.30;94.40;;;;;;4955332;28;20035;-65
2022/04/12 13:38:36;;;;;;;14.45;8.98;;;20.40;94.60;;;;;;4951670;29;20039;-64
2022/04/12 13:41:03;;;;;;;15.35;9.00;;;20.40;94.30;;;;;;4948288;28;20034;-64
2022/04/12 13:43:29;;;;;;;15.48;9.23;;;20.50;93.70;;;;;;4955021;28;20098;-64
2022/04/12 13:45:55;;;;;;;15.88;8.68;;;20.50;93.10;;;;;;4955629;28;20406;-64
2022/04/12 13:48:20;;;;;;;13.35;8.80;;;20.60;94.30;;;;;;4942606;28;20039;-64
2022/04/12 13:50:46;;;;;;;15.65;9.13;;;20.60;94.90;;;;;;4952986;28;20182;-64
2022/04/12 13:53:11;;;;;;;12.52;8.30;;;20.60;94.90;;;;;;4954670;29;20054;-65
2022/04/12 13:55:37;;;;;;;17.60;8.25;;;20.60;94.80;;;;;;4940888;28;20047;-64